createdAt,value
2017-11-15T00:02:19.212Z,4.70
2017-11-15T00:04:47.105Z,4.60
2017-11-15T00:07:14.627Z,4.60
2017-11-15T00:09:42.534Z,4.60
2017-11-15T00:12:10.064Z,4.60
2017-11-15T00:14:37.963Z,4.60
2017-11-15T00:17:05.609Z,4.60
2017-11-15T00:19:37.884Z,4.60
2017-11-15T00:22:10.276Z,4.60
2017-11-15T00:24:38.901Z,4.60
2017-11-15T00:27:07.287Z,4.70
2017-11-15T00:29:34.831Z,4.70
2017-11-15T00:32:03.460Z,4.70
2017-11-15T00:34:32.070Z,4.70
2017-11-15T00:37:01.243Z,4.70
2017-11-15T00:39:33.137Z,4.70
2017-11-15T00:42:03.059Z,4.70
2017-11-15T00:44:35.407Z,4.70
2017-11-15T00:47:02.948Z,4.70
2017-11-15T00:49:30.613Z,4.70
2017-11-15T00:51:58.131Z,4.70
2017-11-15T00:54:25.647Z,4.70
2017-11-15T00:56:53.132Z,4.70
2017-11-15T00:59:22.578Z,4.70
2017-11-15T01:01:50.467Z,4.70
2017-11-15T01:04:17.981Z,4.70
2017-11-15T01:06:46.360Z,4.70
2017-11-15T01:09:20.210Z,4.80
2017-11-15T01:11:47.723Z,4.80
2017-11-15T01:14:15.209Z,4.80
2017-11-15T01:16:42.727Z,4.80
2017-11-15T01:19:10.212Z,4.80
2017-11-15T01:21:39.009Z,4.90
2017-11-15T01:24:06.897Z,4.90
2017-11-15T01:26:34.397Z,4.90
2017-11-15T01:29:01.890Z,4.90
2017-11-15T01:31:29.787Z,4.80
2017-11-15T01:33:57.269Z,4.80
2017-11-15T01:36:24.773Z,4.90
2017-11-15T01:38:52.641Z,5.00
2017-11-15T01:41:20.548Z,4.90
2017-11-15T01:43:48.032Z,4.90
2017-11-15T01:46:15.542Z,4.90
2017-11-15T01:48:43.031Z,4.90
2017-11-15T01:51:10.524Z,4.90
2017-11-15T01:53:38.414Z,4.90
2017-11-15T01:56:06.319Z,4.90
2017-11-15T01:58:33.838Z,4.90
2017-11-15T02:01:13.708Z,4.80
2017-11-15T02:03:41.199Z,4.80
2017-11-15T02:06:08.700Z,4.80
2017-11-15T02:08:37.533Z,4.80
2017-11-15T02:11:05.035Z,4.80
2017-11-15T02:13:32.911Z,4.70
2017-11-15T02:16:00.828Z,4.70
2017-11-15T02:18:28.320Z,4.70
2017-11-15T02:20:56.222Z,4.70
2017-11-15T02:23:23.704Z,4.70
2017-11-15T02:25:51.207Z,4.70
2017-11-15T02:28:18.705Z,4.70
2017-11-15T02:30:46.229Z,4.70
2017-11-15T02:33:14.107Z,4.70
2017-11-15T02:35:42.005Z,4.70
2017-11-15T02:38:10.446Z,4.70
2017-11-15T02:40:38.366Z,4.70
2017-11-15T02:43:05.873Z,4.70
2017-11-15T02:45:33.775Z,4.60
2017-11-15T02:48:01.260Z,4.60
2017-11-15T02:50:28.751Z,4.60
2017-11-15T02:52:56.631Z,4.60
2017-11-15T02:55:24.529Z,4.50
2017-11-15T02:57:52.005Z,4.50
2017-11-15T03:00:21.511Z,4.40
2017-11-15T03:02:48.989Z,4.40
2017-11-15T03:05:16.501Z,4.40
2017-11-15T03:07:44.000Z,4.30
2017-11-15T03:10:11.485Z,4.30
2017-11-15T03:12:39.351Z,4.30
2017-11-15T03:15:07.248Z,4.20
2017-11-15T03:17:34.736Z,4.20
2017-11-15T03:20:02.270Z,4.20
2017-11-15T03:22:30.694Z,4.30
2017-11-15T03:24:58.204Z,4.30
2017-11-15T03:27:25.716Z,4.30
2017-11-15T03:29:53.609Z,4.30
2017-11-15T03:32:21.516Z,4.30
2017-11-15T03:34:49.003Z,4.30
2017-11-15T03:37:16.513Z,4.30
2017-11-15T03:39:44.009Z,4.30
2017-11-15T03:42:11.500Z,4.30
2017-11-15T03:44:39.373Z,4.30
2017-11-15T03:47:07.257Z,4.30
2017-11-15T03:49:36.719Z,4.30
2017-11-15T03:52:04.199Z,4.30
2017-11-15T03:54:34.161Z,4.30
2017-11-15T03:57:01.647Z,4.30
2017-11-15T03:59:29.176Z,4.30
2017-11-15T04:01:56.675Z,4.30
2017-11-15T04:04:24.544Z,4.40
2017-11-15T04:06:52.464Z,4.30
2017-11-15T04:09:19.945Z,4.30
2017-11-15T04:11:47.445Z,4.30
2017-11-15T04:14:14.951Z,4.30
2017-11-15T04:16:42.449Z,4.30
2017-11-15T04:19:10.322Z,4.30
2017-11-15T04:21:38.282Z,4.30
2017-11-15T04:24:06.185Z,4.30
2017-11-15T04:26:34.597Z,4.30
2017-11-15T04:29:02.120Z,4.30
2017-11-15T04:31:29.604Z,4.30
2017-11-15T04:33:57.084Z,4.20
2017-11-15T04:36:24.595Z,4.20
2017-11-15T04:38:52.119Z,4.30
2017-11-15T04:41:20.030Z,4.30
2017-11-15T04:43:47.513Z,4.30
2017-11-15T04:46:15.028Z,4.30
2017-11-15T04:48:42.531Z,4.30
2017-11-15T04:51:10.021Z,4.30
2017-11-15T04:53:37.911Z,4.20
2017-11-15T04:56:05.453Z,4.20
2017-11-15T04:58:33.351Z,4.20
2017-11-15T05:01:00.852Z,4.30
2017-11-15T05:03:28.333Z,4.30
2017-11-15T05:05:58.196Z,4.30
2017-11-15T05:08:26.628Z,4.30
2017-11-15T05:10:54.547Z,4.30
2017-11-15T05:13:22.062Z,4.30
2017-11-15T05:15:49.930Z,4.20
2017-11-15T05:18:17.800Z,4.20
2017-11-15T05:20:45.288Z,4.20
2017-11-15T05:23:12.777Z,4.30
2017-11-15T05:25:41.160Z,4.30
2017-11-15T05:28:08.662Z,4.30
2017-11-15T05:30:36.172Z,4.20
2017-11-15T05:33:03.652Z,4.20
2017-11-15T05:35:31.516Z,4.20
2017-11-15T05:37:59.423Z,4.30
2017-11-15T05:40:27.844Z,4.30
2017-11-15T05:42:55.372Z,4.30
2017-11-15T05:45:22.856Z,4.30
2017-11-15T05:47:50.383Z,4.30
2017-11-15T05:50:17.891Z,4.30
2017-11-15T05:52:45.769Z,4.30
2017-11-15T05:55:13.675Z,4.30
2017-11-15T05:57:41.166Z,4.30
2017-11-15T06:00:08.682Z,4.30
2017-11-15T06:02:36.175Z,4.20
2017-11-15T06:05:03.696Z,4.20
2017-11-15T06:33:15.130Z,4.00
2017-11-15T06:35:43.169Z,4.00
2017-11-15T06:43:47.409Z,4.00
2017-11-15T06:46:20.174Z,4.00
2017-11-15T06:49:30.812Z,4.00
2017-11-15T08:12:50.316Z,3.90
2017-11-15T08:15:17.800Z,3.80
2017-11-15T08:17:45.296Z,3.80
2017-11-15T08:20:13.723Z,3.90
2017-11-15T08:22:41.219Z,3.90
2017-11-15T08:25:09.177Z,4.00
2017-11-15T08:27:36.679Z,4.10
2017-11-15T08:30:04.556Z,4.30
2017-11-15T08:32:32.437Z,4.40
2017-11-15T08:34:59.944Z,4.50
2017-11-15T08:37:27.425Z,4.50
2017-11-15T08:39:54.929Z,4.60
2017-11-15T08:42:22.429Z,4.40
2017-11-15T08:44:49.941Z,4.50
2017-11-15T08:47:17.470Z,4.50
2017-11-15T08:49:46.300Z,4.50
2017-11-15T08:52:13.779Z,4.50
2017-11-15T08:54:43.229Z,4.40
2017-11-15T08:57:13.765Z,4.20
2017-11-15T08:59:41.279Z,4.20
2017-11-15T09:02:08.760Z,4.20
2017-11-15T09:04:36.659Z,4.40
2017-11-15T09:07:04.179Z,4.40
2017-11-15T09:09:34.024Z,4.70
2017-11-15T09:12:01.513Z,4.70
2017-11-15T09:14:28.992Z,4.80
2017-11-15T09:16:56.509Z,4.90
2017-11-15T09:19:24.944Z,5.10
2017-11-15T09:21:52.450Z,5.30
2017-11-15T09:24:19.948Z,5.10
2017-11-15T09:26:47.432Z,4.90
2017-11-15T09:29:15.331Z,4.90
2017-11-15T09:31:42.821Z,4.90
2017-11-15T09:34:10.329Z,4.80
2017-11-15T09:36:37.818Z,4.90
2017-11-15T09:39:07.325Z,5.00
2017-11-15T09:41:34.810Z,5.10
2017-11-15T09:44:02.313Z,5.10
2017-11-15T09:46:29.816Z,5.10
2017-11-15T09:48:57.323Z,5.10
2017-11-15T09:51:24.820Z,5.10
2017-11-15T09:53:52.390Z,5.20
2017-11-15T09:56:19.891Z,5.30
2017-11-15T09:58:47.796Z,5.50
2017-11-15T10:01:15.292Z,5.50
2017-11-15T10:03:42.824Z,5.70
2017-11-15T10:06:12.288Z,5.70
2017-11-15T10:08:39.772Z,5.70
2017-11-15T10:11:07.263Z,5.90
2017-11-15T10:13:34.769Z,5.90
2017-11-15T10:16:02.261Z,6.00
2017-11-15T10:18:29.768Z,6.00
2017-11-15T10:20:57.668Z,6.10
2017-11-15T10:23:25.174Z,6.10
2017-11-15T10:25:52.662Z,6.00
2017-11-15T10:28:20.166Z,5.90
2017-11-15T10:30:48.619Z,5.90
2017-11-15T10:33:16.126Z,5.90
2017-11-15T10:35:43.636Z,6.00
2017-11-15T10:38:11.117Z,6.10
2017-11-15T10:40:40.377Z,6.00
2017-11-15T10:43:07.872Z,6.00
2017-11-15T10:45:35.388Z,6.10
2017-11-15T10:48:02.880Z,6.10
2017-11-15T10:50:30.359Z,6.20
2017-11-15T10:52:57.863Z,6.40
2017-11-15T10:55:25.348Z,6.40
2017-11-15T10:57:52.855Z,6.50
2017-11-15T11:00:20.732Z,6.40
2017-11-15T11:02:48.637Z,6.30
2017-11-15T11:05:16.134Z,6.30
2017-11-15T11:07:43.623Z,6.40
2017-11-15T11:10:11.520Z,6.80
2017-11-15T11:12:39.016Z,6.80
2017-11-15T11:15:06.545Z,6.90
2017-11-15T11:17:34.034Z,6.80
2017-11-15T11:20:01.524Z,6.80
2017-11-15T11:22:29.419Z,6.90
2017-11-15T11:24:56.931Z,6.90
2017-11-15T11:27:24.832Z,6.90
2017-11-15T11:29:52.316Z,6.90
2017-11-15T11:32:21.799Z,6.80
2017-11-15T11:34:49.288Z,7.00
2017-11-15T11:37:16.785Z,7.10
2017-11-15T11:39:44.687Z,7.20
2017-11-15T11:42:12.181Z,7.20
2017-11-15T11:44:39.676Z,7.20
2017-11-15T11:47:07.563Z,7.00
2017-11-15T11:49:35.078Z,7.00
2017-11-15T11:52:02.560Z,6.90
2017-11-15T11:54:30.461Z,7.00
2017-11-15T11:56:58.893Z,7.00
2017-11-15T11:59:26.856Z,6.90
2017-11-15T12:01:54.359Z,6.90
2017-11-15T12:04:21.860Z,6.80
2017-11-15T12:06:49.349Z,6.70
2017-11-15T12:09:17.228Z,6.90
2017-11-15T12:11:44.746Z,6.90
2017-11-15T12:14:12.292Z,6.90
2017-11-15T12:16:39.798Z,7.00
2017-11-15T12:19:07.289Z,7.00
2017-11-15T12:21:34.784Z,7.00
2017-11-15T12:24:02.259Z,6.90
2017-11-15T12:26:30.155Z,6.80
2017-11-15T12:28:57.663Z,6.80
2017-11-15T12:31:25.214Z,7.00
2017-11-15T12:33:52.790Z,7.10
2017-11-15T12:36:21.299Z,7.10
2017-11-15T12:38:48.811Z,7.10
2017-11-15T12:41:16.307Z,7.20
2017-11-15T12:43:44.755Z,7.10
2017-11-15T12:46:12.307Z,7.10
2017-11-15T12:48:40.764Z,7.10
2017-11-15T12:51:08.255Z,7.20
2017-11-15T12:53:35.770Z,7.30
2017-11-15T12:56:03.257Z,7.40
2017-11-15T12:58:32.696Z,7.40
2017-11-15T13:01:01.543Z,7.40
2017-11-15T13:03:29.951Z,7.40
2017-11-15T13:05:57.462Z,7.40
2017-11-15T13:08:24.932Z,7.40
2017-11-15T13:10:53.320Z,7.40
2017-11-15T13:13:20.820Z,7.40
2017-11-15T13:15:48.702Z,7.50
2017-11-15T13:18:16.217Z,7.50
2017-11-15T13:20:43.700Z,7.50
2017-11-15T13:23:11.595Z,7.60
2017-11-15T13:25:39.079Z,7.60
2017-11-15T13:28:06.572Z,7.70
2017-11-15T13:30:34.068Z,7.80
2017-11-15T13:33:01.600Z,7.80
2017-11-15T13:35:29.484Z,7.90
2017-11-15T13:37:56.974Z,7.90
2017-11-15T13:40:24.474Z,7.90
2017-11-15T13:42:51.960Z,7.80
2017-11-15T13:45:19.484Z,7.70
2017-11-15T13:47:47.017Z,7.80
2017-11-15T13:50:15.476Z,7.80
2017-11-15T13:52:43.893Z,7.80
2017-11-15T13:55:11.381Z,7.90
2017-11-15T13:57:38.894Z,7.90
2017-11-15T14:00:06.380Z,7.90
2017-11-15T14:02:33.861Z,7.80
2017-11-15T14:05:01.762Z,7.70
2017-11-15T14:07:29.247Z,7.80
2017-11-15T14:09:56.775Z,7.80
2017-11-15T14:12:24.267Z,7.80
2017-11-15T14:14:51.772Z,7.80
2017-11-15T14:17:19.268Z,8.00
2017-11-15T14:19:47.203Z,8.10
2017-11-15T14:22:14.729Z,8.10
2017-11-15T14:24:43.605Z,8.20
2017-11-15T14:27:11.110Z,8.20
2017-11-15T14:29:38.596Z,8.20
2017-11-15T14:32:06.091Z,8.10
2017-11-15T14:34:33.983Z,8.10
2017-11-15T14:37:01.471Z,8.10
2017-11-15T14:39:29.003Z,8.10
2017-11-15T14:41:56.485Z,8.10
2017-11-15T14:44:23.993Z,8.10
2017-11-15T14:46:51.874Z,8.00
2017-11-15T14:49:20.729Z,8.00
2017-11-15T14:51:48.240Z,8.00
2017-11-15T14:54:15.724Z,7.90
2017-11-15T14:56:43.221Z,7.90
2017-11-15T14:59:11.117Z,7.80
2017-11-15T15:01:38.624Z,7.80
2017-11-15T15:04:06.121Z,7.80
2017-11-15T15:06:34.946Z,7.60
2017-11-15T15:09:02.494Z,7.60
2017-11-15T15:11:29.981Z,7.50
2017-11-15T15:13:57.479Z,7.40
2017-11-15T15:16:25.362Z,7.40
2017-11-15T15:18:52.873Z,7.40
2017-11-15T15:21:20.380Z,7.30
2017-11-15T15:23:47.924Z,7.20
2017-11-15T15:26:16.345Z,7.20
2017-11-15T15:28:43.832Z,7.10
2017-11-15T15:31:11.332Z,7.10
2017-11-15T15:33:39.272Z,7.00
2017-11-15T15:36:06.761Z,7.00
2017-11-15T15:38:34.272Z,6.90
2017-11-15T15:41:02.680Z,6.80
2017-11-15T15:43:30.556Z,6.60
2017-11-15T15:45:58.452Z,6.60
2017-11-15T15:48:26.892Z,6.60
2017-11-15T15:50:54.776Z,6.40
2017-11-15T15:53:23.152Z,6.40
2017-11-15T15:55:50.683Z,6.30
2017-11-15T15:58:18.584Z,6.00
2017-11-15T16:00:46.057Z,6.00
2017-11-15T16:03:13.551Z,5.90
2017-11-15T16:05:41.034Z,5.90
2017-11-15T16:08:08.910Z,5.80
2017-11-15T16:10:36.809Z,5.70
2017-11-15T16:13:04.301Z,5.70
2017-11-15T16:15:32.700Z,5.70
2017-11-15T16:18:00.575Z,5.60
2017-11-15T16:20:28.466Z,5.50
2017-11-15T16:22:55.958Z,5.50
2017-11-15T16:25:23.466Z,5.50
2017-11-15T16:27:50.956Z,5.40
2017-11-15T16:30:19.407Z,5.30
2017-11-15T16:32:46.936Z,5.20
2017-11-15T16:35:14.434Z,5.20
2017-11-15T16:37:41.955Z,5.20
2017-11-15T16:40:09.439Z,5.10
2017-11-15T16:42:37.844Z,5.10
2017-11-15T16:45:05.344Z,5.10
2017-11-15T16:47:32.823Z,5.10
2017-11-15T16:50:00.742Z,5.10
2017-11-15T16:52:28.243Z,5.10
2017-11-15T16:54:56.136Z,5.00
2017-11-15T16:57:23.626Z,5.10
2017-11-15T16:59:51.107Z,5.00
2017-11-15T17:02:18.607Z,5.10
2017-11-15T17:04:46.123Z,5.10
2017-11-15T17:07:13.605Z,5.20
2017-11-15T17:09:41.484Z,5.10
2017-11-15T17:12:09.013Z,5.10
2017-11-15T17:14:37.499Z,5.10
2017-11-15T17:17:04.993Z,5.10
2017-11-15T17:19:32.479Z,5.10
2017-11-15T17:21:59.976Z,5.10
2017-11-15T17:24:27.455Z,5.10
2017-11-15T17:26:55.349Z,5.10
2017-11-15T17:29:22.851Z,5.10
2017-11-15T17:31:50.347Z,5.10
2017-11-15T17:34:17.820Z,5.00
2017-11-15T17:36:45.331Z,5.10
2017-11-15T17:39:12.828Z,5.10
2017-11-15T17:41:40.300Z,5.10
2017-11-15T17:44:07.795Z,5.10
2017-11-15T17:46:35.272Z,5.10
2017-11-15T17:49:03.169Z,5.10
2017-11-15T17:51:30.652Z,5.10
2017-11-15T17:53:58.640Z,5.10
2017-11-15T17:56:26.173Z,5.10
2017-11-15T17:58:53.776Z,5.10
2017-11-15T18:01:21.313Z,5.10
2017-11-15T18:03:48.797Z,5.10
2017-11-15T18:06:16.705Z,5.10
2017-11-15T18:08:46.818Z,5.10
2017-11-15T18:11:14.298Z,5.10
2017-11-15T18:13:43.753Z,5.10
2017-11-15T18:16:11.648Z,5.10
2017-11-15T18:18:41.193Z,5.10
2017-11-15T18:21:08.701Z,5.10
2017-11-15T18:23:36.184Z,5.10
2017-11-15T18:26:03.682Z,5.20
2017-11-15T18:28:31.214Z,5.20
2017-11-15T18:30:58.696Z,5.30
2017-11-15T18:33:27.137Z,5.30
2017-11-15T18:35:54.631Z,5.30
2017-11-15T18:38:22.115Z,5.30
2017-11-15T18:40:50.018Z,5.40
2017-11-15T18:43:17.500Z,5.40
2017-11-15T18:45:45.005Z,5.30
2017-11-15T18:48:12.884Z,5.40
2017-11-15T18:50:41.353Z,5.40
2017-11-15T18:53:09.224Z,5.40
2017-11-15T18:55:36.708Z,5.40
2017-11-15T18:58:04.205Z,5.40
2017-11-15T19:00:31.680Z,5.40
2017-11-15T19:02:59.571Z,5.40
2017-11-15T19:05:27.504Z,5.40
2017-11-15T19:07:55.423Z,5.40
2017-11-15T19:10:22.900Z,5.50
2017-11-15T19:12:50.405Z,5.50
2017-11-15T19:15:18.284Z,5.50
2017-11-15T19:17:45.792Z,5.50
2017-11-15T19:20:13.284Z,5.50
2017-11-15T19:22:41.156Z,5.50
2017-11-15T19:25:09.047Z,5.50
2017-11-15T19:27:36.527Z,5.50
2017-11-15T19:30:05.987Z,5.50
2017-11-15T19:32:33.876Z,5.50
2017-11-15T19:35:02.296Z,5.60
2017-11-15T19:37:29.796Z,5.50
2017-11-15T19:39:57.688Z,5.50
2017-11-15T19:42:25.212Z,5.60
2017-11-15T19:44:53.080Z,5.60
2017-11-15T19:47:23.007Z,5.60
2017-11-15T19:49:50.506Z,5.60
2017-11-15T19:52:17.988Z,5.60
2017-11-15T19:54:45.494Z,5.60
2017-11-15T19:57:12.983Z,5.60
2017-11-15T19:59:42.416Z,5.70
2017-11-15T20:02:09.919Z,5.70
2017-11-15T20:04:38.336Z,5.70
2017-11-15T20:07:05.830Z,5.80
2017-11-15T20:09:33.744Z,5.90
2017-11-15T20:12:01.254Z,5.90
2017-11-15T20:14:30.030Z,6.00
2017-11-15T20:16:57.922Z,6.00
2017-11-15T20:19:25.400Z,6.00
2017-11-15T20:21:52.901Z,6.00
2017-11-15T20:24:20.379Z,6.10
2017-11-15T20:26:48.277Z,6.20
2017-11-15T20:29:15.758Z,6.20
2017-11-15T20:31:44.066Z,6.20
2017-11-15T20:34:11.564Z,6.30
2017-11-15T20:36:39.058Z,6.30
2017-11-15T20:39:07.453Z,6.30
2017-11-15T20:41:34.956Z,6.40
2017-11-15T20:44:02.455Z,6.40
2017-11-15T20:46:29.948Z,6.50
2017-11-15T20:48:57.816Z,6.50
2017-11-15T20:51:25.714Z,6.50
2017-11-15T20:53:53.196Z,6.50
2017-11-15T20:56:20.732Z,6.40
2017-11-15T20:58:48.220Z,6.40
2017-11-15T21:01:15.722Z,6.40
2017-11-15T21:03:43.597Z,6.60
2017-11-15T21:06:11.110Z,6.60
2017-11-15T21:08:38.577Z,6.70
2017-11-15T21:11:06.055Z,6.90
2017-11-15T21:13:33.936Z,6.90
2017-11-15T21:16:01.424Z,6.90
2017-11-15T21:18:28.987Z,6.80
2017-11-15T21:20:56.459Z,6.90
2017-11-15T21:23:23.948Z,6.70
2017-11-15T21:25:51.849Z,6.60
2017-11-15T21:28:20.295Z,6.60
2017-11-15T21:30:48.211Z,6.50
2017-11-15T21:33:16.619Z,6.50
2017-11-15T21:35:44.123Z,6.50
2017-11-15T21:38:11.677Z,6.50
2017-11-15T21:40:39.180Z,6.50
2017-11-15T21:43:06.663Z,6.50
2017-11-15T21:45:35.113Z,6.50
2017-11-15T21:48:02.612Z,6.50
2017-11-15T21:50:30.134Z,6.60
2017-11-15T21:52:57.608Z,6.70
2017-11-15T21:55:25.108Z,6.70
2017-11-15T21:57:52.593Z,6.70
2017-11-15T22:00:20.089Z,6.70
2017-11-15T22:02:47.587Z,6.70
2017-11-15T22:05:15.080Z,6.80
2017-11-15T22:07:42.558Z,6.70
2017-11-15T22:10:10.061Z,6.70
2017-11-15T22:12:37.540Z,6.80
2017-11-15T22:15:06.967Z,6.80
2017-11-15T22:17:34.476Z,6.90
2017-11-15T22:20:01.960Z,6.90
2017-11-15T22:22:29.452Z,6.80
2017-11-15T22:24:56.938Z,6.70
2017-11-15T22:27:24.829Z,6.70
2017-11-15T22:29:53.254Z,6.70
2017-11-15T22:32:20.756Z,6.60
2017-11-15T22:34:48.246Z,6.60
2017-11-15T22:37:15.727Z,6.70
2017-11-15T22:39:43.228Z,6.70
2017-11-15T22:42:10.712Z,6.70
2017-11-15T22:44:38.257Z,6.80
2017-11-15T22:47:06.596Z,6.90
2017-11-15T22:49:34.079Z,6.90
2017-11-15T22:52:01.576Z,6.80
2017-11-15T22:54:29.052Z,6.80
2017-11-15T22:56:56.579Z,6.80
2017-11-15T22:59:24.061Z,6.70
2017-11-15T23:01:52.476Z,6.70
2017-11-15T23:04:20.359Z,6.70
2017-11-15T23:06:47.829Z,6.70
2017-11-15T23:09:15.339Z,6.60
2017-11-15T23:11:42.832Z,6.60
2017-11-15T23:14:10.732Z,6.60
2017-11-15T23:16:38.228Z,6.60
2017-11-15T23:19:05.702Z,6.60
2017-11-15T23:21:33.595Z,6.70
2017-11-15T23:24:01.086Z,6.70
2017-11-15T23:26:28.616Z,6.70
2017-11-15T23:28:56.105Z,6.60
2017-11-15T23:31:24.321Z,6.60
2017-11-15T23:33:53.185Z,6.70
2017-11-15T23:36:20.712Z,6.70
2017-11-15T23:38:48.212Z,6.70
2017-11-15T23:41:15.683Z,6.70
2017-11-15T23:43:43.589Z,6.60
2017-11-15T23:46:11.128Z,6.60
2017-11-15T23:48:38.621Z,6.60
2017-11-15T23:51:06.095Z,6.60
2017-11-15T23:53:33.591Z,6.60
2017-11-15T23:56:01.465Z,6.70
2017-11-15T23:58:28.977Z,6.60
